Latest Weather Observations for Swan Island

IDT60801

Issued at 3:41 pm EST Wednesday 20 June 2018 (issued every 10 minutes, with the page automatically refreshed every 10 minutes)

About weather observations | Map of weather stations | Latest weather observations for TAS | Other Formats
Station Details ID: 092123 Name: SWAN ISLAND Lat: -40.73 Lon: 148.12 Height: 15.0 m
Data from the previous 72 hours. | See also: Recent months at Swan Island
Date/Time
EST
Temp
°C
App
Temp
°C
Dew
Point
°C
Rel
Hum
%
Delta-T
°C
Wind Press
QNH
hPa
Press
MSL
hPa
Rain since
9am
mm
Dir  Spd
km/h
Gust
km/h
Spd
kts
Gust
kts
20/03:30pm 13.5 10.2 7.9 69 2.7 NNW 15 17 8 9 1026.9 1026.9 0.0
20/03:00pm 14.2 11.0 8.4 68 2.9 N 15 19 8 10 1026.9 1026.9 0.0
20/02:30pm 14.5 11.4 8.7 68 2.9 N 15 19 8 10 1026.9 1026.9 0.0
20/02:00pm 14.7 12.2 8.2 65 3.2 N 11 13 6 7 1027.0 1027.0 0.0
20/01:30pm 15.0 13.0 8.7 66 3.2 N 9 11 5 6 1027.3 1027.3 0.0
20/01:00pm 14.8 12.8 8.5 66 3.2 N 9 11 5 6 1027.7 1027.7 0.0
20/12:30pm 14.8 12.0 8.5 66 3.2 NNW 13 17 7 9 1028.0 1028.0 0.0
20/12:00pm 14.4 10.9 8.6 68 2.9 N 17 19 9 10 1028.4 1028.4 0.0
20/11:30am 14.1 11.0 8.7 70 2.7 N 15 19 8 10 1028.7 1028.7 0.0
20/11:00am 13.8 10.6 8.6 71 2.6 N 15 17 8 9 1029.1 1029.1 0.0
20/10:30am 14.0 10.8 8.4 69 2.8 N 15 19 8 10 1029.3 1029.3 0.0
20/10:00am 14.0 11.5 8.2 68 2.9 N 11 17 6 9 1029.4 1029.4 0.0
20/09:30am 14.1 11.7 8.7 70 2.7 NNE 11 15 6 8 1029.4 1029.4 0.0
20/09:00am 13.5 11.1 8.6 72 2.4 NE 11 13 6 7 1029.4 1029.4 0.2
20/08:30am 12.7 11.2 9.0 78 1.9 NE 7 11 4 6 1029.4 1029.4 0.2
20/08:00am 10.8 9.6 7.9 82 1.4 NE 4 6 2 3 1029.1 1029.1 0.2
20/07:30am 11.1 9.2 6.5 73 2.2 NE 6 7 3 4 1029.1 1029.1 0.2
20/07:00am 12.0 10.2 7.3 73 2.2 NE 6 9 3 5 1029.0 1029.0 0.2
20/06:30am 12.1 10.3 7.0 71 2.4 NE 6 7 3 4 1028.8 1028.8 0.2
20/06:00am 12.0 10.1 6.9 71 2.4 NE 6 7 3 4 1028.7 1028.7 0.2
20/05:30am 11.8 9.9 6.7 71 2.4 NE 6 7 3 4 1028.8 1028.8 0.2
20/05:00am 12.0 10.2 7.3 73 2.3 NE 6 7 3 4 1028.6 1028.6 0.2
20/04:30am 11.6 9.2 6.9 73 2.2 NE 9 11 5 6 1028.5 1028.5 0.2
20/04:00am 11.7 9.3 7.0 73 2.2 NE 9 11 5 6 1028.5 1028.5 0.2
20/03:30am 11.8 9.0 6.9 72 2.3 NE 11 13 6 7 1028.6 1028.6 0.2
20/03:00am 11.9 9.1 8.6 80 1.6 ESE 13 15 7 8 1028.5 1028.5 0.2
20/02:30am 11.6 9.2 8.5 81 1.5 ESE 11 15 6 8 1028.6 1028.6 0.2
20/02:00am 11.3 8.8 8.2 81 1.5 SE 11 17 6 9 1028.9 1028.9 0.2
20/01:30am 11.1 9.5 8.0 81 1.5 S 6 9 3 5 1029.3 1029.3 0.2
20/01:00am 11.2 9.4 8.1 81 1.5 S 7 9 4 5 1029.6 1029.6 0.2
20/12:30am 11.3 9.6 8.2 81 1.5 SSE 7 9 4 5 1029.6 1029.6 0.2
20/12:00am 11.4 9.6 7.9 79 1.7 SSE 7 11 4 6 1029.9 1029.9 0.2
 
Date/Time
EST
Temp
°C
App
Temp
°C
Dew
Point
°C
Rel
Hum
%
Delta-T
°C
Wind Press
QNH
hPa
Press
MSL
hPa
Rain since
9am
mm
Dir  Spd
km/h
Gust
km/h
Spd
kts
Gust
kts
19/11:30pm 11.2 8.2 7.7 79 1.7 SSE 13 17 7 9 1030.1 1030.1 0.2
19/11:00pm 11.2 8.2 7.7 79 1.7 SSE 13 17 7 9 1030.3 1030.3 0.2
19/10:30pm 11.1 7.3 7.4 78 1.8 SSE 17 22 9 12 1030.3 1030.3 0.2
19/10:00pm 10.9 7.0 7.2 78 1.8 SSE 17 22 9 12 1030.3 1030.3 0.2
19/09:30pm 10.8 7.3 7.3 79 1.7 SSE 15 20 8 11 1030.4 1030.4 0.2
19/09:00pm 10.6 7.5 7.1 79 1.6 S 13 17 7 9 1030.5 1030.5 0.2
19/08:30pm 10.8 8.1 7.3 79 1.7 S 11 15 6 8 1030.5 1030.5 0.2
19/08:00pm 11.1 8.5 7.8 80 1.6 S 11 15 6 8 1030.6 1030.6 0.2
19/07:30pm 11.0 7.6 7.5 79 1.7 SSE 15 20 8 11 1030.4 1030.4 0.2
19/07:00pm 11.3 7.8 7.2 76 1.9 SSE 15 19 8 10 1030.2 1030.2 0.2
19/06:30pm 11.4 7.5 7.3 76 2.0 SSE 17 20 9 11 1029.9 1029.9 0.2
19/06:00pm 11.4 8.0 7.5 77 1.9 SSE 15 19 8 10 1029.6 1029.6 0.2
19/05:30pm 11.4 7.1 7.7 78 1.8 SE 20 24 11 13 1029.3 1029.3 0.2
19/05:00pm 11.4 7.7 8.1 80 1.6 SSE 17 24 9 13 1029.2 1029.2 0.2
19/04:30pm 11.5 7.8 7.8 78 1.8 SSE 17 22 9 12 1029.3 1029.3 0.2
19/04:00pm 11.7 7.8 7.0 73 2.2 SSE 17 22 9 12 1029.5 1029.5 0.2
19/03:30pm 11.8 8.8 7.5 75 2.1 SSE 13 19 7 10 1029.4 1029.4 0.2
19/03:00pm 11.8 8.4 7.7 76 2.0 SSE 15 19 8 10 1029.3 1029.3 0.2
19/02:30pm 11.6 7.7 8.5 81 1.5 SSE 19 22 10 12 1029.4 1029.4 0.2
19/02:00pm 11.6 8.4 8.5 81 1.5 SE 15 20 8 11 1029.2 1029.2 0.2
19/01:30pm 12.1 9.1 9.1 82 1.5 SSE 15 19 8 10 1029.4 1029.4 0.2
19/01:00pm 11.5 7.7 8.9 84 1.3 SSE 19 24 10 13 1029.5 1029.5 0.2
19/12:30pm 11.5 7.7 9.8 89 0.9 SE 20 28 11 15 1029.6 1029.6 0.2
19/12:00pm 10.6 6.9 9.5 93 0.5 SSE 19 24 10 13 1030.1 1030.1 0.2
19/11:30am 10.6 7.3 9.5 93 0.6 SE 17 20 9 11 1030.4 1030.4 0.2
19/11:00am 10.0 6.2 8.9 93 0.5 SSE 19 26 10 14 1030.7 1030.7 0.2
19/10:30am 9.9 6.0 8.7 92 0.6 SSE 19 22 10 12 1031.0 1031.0 0.0
19/10:00am 10.0 6.2 8.9 93 0.5 SSE 19 24 10 13 1030.8 1030.8 0.0
19/09:30am 9.6 5.1 8.5 93 0.5 SSE 22 32 12 17 1030.5 1030.5 0.0
19/09:00am 9.2 5.5 8.0 92 0.6 SSE 17 24 9 13 1030.5 1030.5 0.8
19/08:30am 8.8 4.0 7.3 90 0.7 SSE 22 32 12 17 1030.2 1030.2 0.8
19/08:00am 9.2 4.8 7.6 90 0.8 SSE 20 28 11 15 1030.0 1030.0 0.6
19/07:30am 8.9 4.7 7.5 91 0.7 SSE 19 28 10 15 1029.6 1029.6 0.6
19/07:00am 9.5 4.5 8.1 91 0.7 SSE 24 33 13 18 1029.4 1029.4 0.4
19/06:30am 8.7 4.4 7.2 90 0.7 S 19 32 10 17 1029.1 1029.1 0.4
19/06:00am 8.9 5.0 7.2 89 0.8 S 17 24 9 13 1028.9 1028.9 0.0
19/05:30am 8.7 5.2 7.0 89 0.8 S 15 22 8 12 1028.6 1028.6 0.0
19/05:00am 8.9 4.9 6.7 86 1.0 S 17 26 9 14 1028.4 1028.4 0.0
19/04:30am 9.1 5.2 6.9 86 1.0 S 17 22 9 12 1028.2 1028.2 0.0
19/04:00am 9.1 4.5 6.7 85 1.1 S 20 28 11 15 1028.3 1028.3 0.0
19/03:30am 9.3 4.7 6.6 83 1.3 S 20 32 11 17 1028.3 1028.3 0.0
19/03:00am 9.0 4.4 5.7 80 1.5 S 19 32 10 17 1028.5 1028.5 0.0
19/02:30am 9.3 4.8 6.0 80 1.5 S 19 26 10 14 1028.4 1028.4 0.0
19/02:00am 9.2 4.1 5.9 80 1.5 S 22 32 12 17 1028.3 1028.3 0.0
19/01:30am 9.7 3.7 5.5 75 1.9 SSE 26 33 14 18 1028.3 1028.3 0.0
19/01:00am 9.5 2.8 5.5 76 1.8 SSE 30 41 16 22 1028.1 1028.1 0.0
19/12:30am 9.7 4.4 4.9 72 2.2 SSE 22 33 12 18 1028.1 1028.1 0.0
19/12:00am 10.1 5.7 4.5 68 2.5 S 17 24 9 13 1028.2 1028.2 0.0
 
Date/Time
EST
Temp
°C
App
Temp
°C
Dew
Point
°C
Rel
Hum
%
Delta-T
°C
Wind Press
QNH
hPa
Press
MSL
hPa
Rain since
9am
mm
Dir  Spd
km/h
Gust
km/h
Spd
kts
Gust
kts
18/11:30pm 9.5 5.1 4.5 71 2.2 S 17 26 9 14 1028.0 1028.0 0.0
18/11:00pm 9.6 5.6 4.8 72 2.1 S 15 24 8 13 1028.0 1028.0 0.0
18/10:30pm 9.5 5.2 5.1 74 2.0 S 17 26 9 14 1027.9 1027.9 0.0
18/10:00pm 9.5 5.5 5.1 74 2.0 SSW 15 24 8 13 1027.7 1027.7 0.0
18/09:30pm 9.2 4.9 5.2 76 1.8 S 17 24 9 13 1027.6 1027.6 0.0
18/09:00pm 9.1 5.2 5.5 78 1.6 SSW 15 24 8 13 1027.6 1027.6 0.0
18/08:30pm 8.9 4.9 5.1 77 1.7 S 15 24 8 13 1027.5 1027.5 0.0
18/08:00pm 9.4 5.2 5.8 78 1.6 S 17 30 9 16 1027.3 1027.3 0.0
18/07:30pm 9.4 5.3 6.1 80 1.5 S 17 24 9 13 1027.1 1027.1 0.0
18/07:00pm 9.2 5.5 6.5 83 1.2 S 15 24 8 13 1026.8 1026.8 0.0
18/06:30pm 9.4 5.7 6.5 82 1.3 S 15 26 8 14 1026.5 1026.5 0.0
18/06:00pm 10.0 5.1 6.7 80 1.5 SSE 22 39 12 21 1026.2 1026.2 0.0
18/05:30pm 10.2 4.9 6.7 79 1.6 SSE 24 32 13 17 1026.0 1026.0 0.0
18/05:00pm 10.8 4.3 6.4 74 2.0 SSE 30 44 16 24 1025.8 1025.8 0.0
18/04:30pm 11.0 5.2 6.2 72 2.2 SSE 26 37 14 20 1025.4 1025.4 0.0
18/04:00pm 11.3 6.6 6.2 71 2.4 SSE 20 26 11 14 1025.0 1025.0 0.0
18/03:30pm 11.6 5.8 6.1 69 2.6 SSE 26 33 14 18 1024.8 1024.8 0.0
18/03:00pm 12.2 6.7 6.0 66 2.9 SSE 24 32 13 17 1024.6 1024.6 0.0
18/02:30pm 12.4 9.0 5.8 64 3.1 SSE 13 19 7 10 1024.4 1024.4 0.0
18/02:00pm 12.0 8.2 5.6 65 3.0 S 15 20 8 11 1024.3 1024.3 0.0
18/01:30pm 11.9 7.1 5.5 65 3.0 S 20 30 11 16 1024.2 1024.2 0.0
18/01:00pm 12.3 6.8 5.7 64 3.1 S 24 35 13 19 1024.0 1024.0 0.0
18/12:30pm 12.4 7.8 5.6 63 3.2 S 19 28 10 15 1024.2 1024.2 0.0
18/12:00pm 12.2 7.9 5.1 62 3.3 S 17 28 9 15 1024.3 1024.3 0.0
18/11:30am 11.6 5.5 5.0 64 3.0 S 26 39 14 21 1024.4 1024.4 0.0
18/11:00am 11.1 4.2 4.6 64 2.9 SSE 30 43 16 23 1024.2 1024.2 0.0
18/10:30am 10.7 4.5 4.2 64 2.9 SSE 26 39 14 21 1024.4 1024.4 0.0
18/10:00am 10.2 5.6 3.7 64 2.8 S 17 26 9 14 1024.2 1024.2 0.0
18/09:30am 9.6 5.7 3.6 66 2.6 SSW 13 20 7 11 1023.7 1023.7 0.0
18/09:00am 9.1 4.8 3.3 67 2.5 S 15 24 8 13 1023.5 1023.5 0.0
18/08:30am 8.6 3.3 3.0 68 2.4 S 20 30 11 16 1023.4 1023.4 0.0
18/08:00am 8.4 2.7 3.1 69 2.2 S 22 33 12 18 1023.2 1023.2 0.0
18/07:30am 8.3 2.7 3.4 71 2.1 S 22 35 12 19 1022.7 1022.7 0.0
18/07:00am 8.3 3.1 3.6 72 2.0 S 20 33 11 18 1022.2 1022.2 0.0
18/06:30am 8.6 4.1 4.2 74 1.9 S 17 26 9 14 1021.8 1021.8 0.0
18/06:00am 8.3 5.4 4.7 78 1.6 SSW 9 17 5 9 1021.3 1021.3 0.0
18/05:30am 8.4 5.4 4.2 75 1.8 SSW 9 19 5 10 1021.0 1021.0 0.0
18/05:00am 9.0 6.1 4.6 74 1.9 SSW 9 15 5 8 1020.8 1020.8 0.0
18/04:30am 9.0 5.7 4.6 74 1.9 SW 11 15 6 8 1020.3 1020.3 0.0
18/04:00am 9.0 5.7 4.8 75 1.9 SW 11 17 6 9 1020.2 1020.2 0.0
18/03:30am 9.6 6.0 5.2 74 2.0 SSW 13 20 7 11 1019.9 1019.9 0.0
18/03:00am 9.5 6.6 4.9 73 2.1 WSW 9 11 5 6 1019.8 1019.8 0.0
18/02:30am 10.4 7.3 5.4 71 2.3 SSW 11 19 6 10 1019.6 1019.6 0.0
18/02:00am 10.2 6.6 5.2 71 2.3 S 13 22 7 12 1019.2 1019.2 0.0
18/01:30am 10.1 6.9 5.3 72 2.2 SSW 11 17 6 9 1019.0 1019.0 0.0
18/01:00am 10.3 7.1 5.3 71 2.3 SSW 11 20 6 11 1018.7 1018.7 0.0
18/12:30am 10.4 6.5 5.4 71 2.3 SSW 15 24 8 13 1018.6 1018.6 0.0
18/12:00am 10.6 6.7 5.4 70 2.4 SSW 15 20 8 11 1018.4 1018.4 0.0
 
Date/Time
EST
Temp
°C
App
Temp
°C
Dew
Point
°C
Rel
Hum
%
Delta-T
°C
Wind Press
QNH
hPa
Press
MSL
hPa
Rain since
9am
mm
Dir  Spd
km/h
Gust
km/h
Spd
kts
Gust
kts
17/11:30pm 10.3 7.2 5.5 72 2.2 SSW 11 19 6 10 1018.3 1018.3 0.0
17/11:00pm 10.0 6.9 5.4 73 2.1 SSW 11 17 6 9 1018.1 1018.1 0.0
17/10:30pm 9.9 6.8 5.7 75 1.9 SSW 11 20 6 11 1017.7 1017.7 0.0
17/10:00pm 10.0 6.7 6.2 77 1.8 SSW 13 22 7 12 1017.3 1017.3 0.0
17/09:30pm 9.7 5.6 6.4 80 1.5 S 17 30 9 16 1017.0 1017.0 0.0
17/09:00pm 9.7 6.0 6.4 80 1.5 S 15 26 8 14 1016.7 1016.7 0.0
17/08:30pm 9.9 5.3 6.4 79 1.6 S 20 32 11 17 1016.1 1016.1 0.0
17/08:00pm 10.4 5.0 6.5 77 1.8 S 24 37 13 20 1015.8 1015.8 0.0
17/07:30pm 10.5 6.4 6.3 75 2.0 S 17 30 9 16 1015.7 1015.7 0.0
17/07:00pm 10.4 5.8 6.4 76 1.9 S 20 30 11 16 1015.4 1015.4 0.0
17/06:30pm 10.4 4.5 6.0 74 2.0 S 26 39 14 21 1014.8 1014.8 0.0
17/06:00pm 10.3 6.1 5.9 74 2.0 S 17 28 9 15 1014.2 1014.2 0.0
17/05:30pm 10.5 5.3 5.7 72 2.2 S 22 41 12 22 1013.8 1013.8 0.0
17/05:00pm 10.6 5.9 6.0 73 2.1 S 20 32 11 17 1013.2 1013.2 0.0
17/04:30pm 11.1 5.2 5.8 70 2.5 S 26 39 14 21 1012.6 1012.6 0.0
17/04:00pm 11.7 5.4 5.8 67 2.7 S 28 43 15 23 1012.2 1012.2 0.0

Other Formats:

Comma delimited format used in spreadsheet applications
http://www.bom.gov.au/fwo/IDT60801/IDT60801.95985.axf

JavaScript Object Notation format (JSON) in row-major order
http://www.bom.gov.au/fwo/IDT60801/IDT60801.95985.json